Terminal Aerodrome Forecast
Issued by NWS

Home | Current Version | Previous Version | Text Only | Print | Product List | Glossary On
Versions: 1 2 3 4 5 6 7 8 9 10 11 12 13 14 15 16 17 18 19 20 21 22 23 24 25 26 27 28 29 30 31 32 33 34 35 36 37 38 39
000
FTAK31 PANC 170539
TAFADQ
TAF
PADQ 170539Z 1706/1806 02012G23KT 5SM -RA BR SCT008 OVC020
      TEMPO 1706/1709 3SM -RA BR BKN008
     FM171200 36004KT 2SM BR VCSH OVC005
     FM171600 10004KT 5SM -SHRA BR SCT005 OVC010
     FM171900 06006KT 6SM -SHRA SCT010 BKN025=

USA.gov is the U.S. government's official web portal to all federal, state and local government web resources and services.